Hanamaulu, HI

3:59 PM HST on February 13, 2016 (GMT -1000)
Lihue | | Change Station
CLOSE
Current Station
Airport
Location: Lihue,
Elevation: 102 ft
Nearby Weather Stations
Active Advisory: High Surf Advisory Active Notice: Record Report

Elev 102 ft 21.98 °N, 159.34 °W | Updated 6 minutes ago

Clear
Clear
80 °F
Feels Like 83 °F
N
7
Wind Variable Wind from East

Today
High -- | Low -- °F
--% Chance of Precip.
Yesterday
High -- | Low -- °F
Precip. -- in
Pressure 30.01 in
Visibility 10.0 miles
Clouds Clear
Heat Index 83 °F
Dew Point 69 °F
Humidity 69%
Rainfall 0.00 in
Snow Depth Not available.
7:09 AM 6:33 PM
Waxing Crescent, 36% visible
METAR PHLI 140153Z 08006KT 10SM CLR 27/21 A3002 RMK AO2 SLP162 T02670206
Pressure 30.01 in
Visibility 10.0 miles
Clouds Clear
Heat Index 83 °F
Dew Point 69 °F
Humidity 69%
Rainfall 0.00 in
Snow Depth Not available.
7:09 AM 6:33 PM
Waxing Crescent, 36% visible
METAR PHLI 140153Z 08006KT 10SM CLR 27/21 A3002 RMK AO2 SLP162 T02670206

10-Day Weather Forecast

Almanac

Astronomy

Feb. 13, 2016 Rise Set
Actual Time
Civil Twilight
Nautical Twilight
Astronomical Twilight
Moon
Length of Visible Light
Length of Day
Tomorrow will be .
, % of the Moon is Illuminated

Today's Extremes

State Highs State Lows

Community

WunderPhotos

Upload Photos

1,892,722 photos uploaded!

WunderBlog® & News

Nearby

Air Quality

  Air Quality AQ Index Pollutant
Not available.

Snow Depth

Station Depth Elevation

Earthquake Activity

City Distance Mag. Time & Date
Minimum magnitude displayed is 2.5.

Coastal Water Temperatures

Place Temperature

Stations

Nearby Weather Stations

Station Location Temp. Windchill Dew Point Humidity Wind Precip. Elev Updated Type
                   

Watches & Warnings

High Surf Advisory
Issued: 3:20 PM HST Feb. 13, 2016 – National Weather Service

... High surf advisory in effect from 6 am Sunday to 6 PM HST
Monday...

The National Weather Service in Honolulu has issued a high surf
advisory... which is in effect from 6 am Sunday to 6 PM HST
Monday.

* Surf... north and west facing shores of Kauai... 14 to 18 feet. North
facing shores of Oahu Molokai and Maui... 10 to 14 feet Sunday
morning building to 14 to 18 feet Sunday afternoon. West facing
shores of Oahu and Molokai... 5 to 8 feet Sunday morning building
to 8 to 12 feet Sunday afternoon.

* Timing... Sunday morning through Monday for Kauai and Niihau.
Sunday afternoon through Monday for Oahu Molokai and Maui.

* Impacts... moderate... expect strong breaking waves... shore
break... and strong longshore and rip currents making swimming
difficult and dangerous.

Precautionary/preparedness actions...
beachgoers... swimmers... and surfers should heed all advice given
by ocean safety officials and exercise caution.



Foster